createdAt,value
2023-08-02T00:00:10.940Z,100062.41
2023-08-02T00:02:37.942Z,100065.41
2023-08-02T00:05:05.303Z,100062.66
2023-08-02T00:07:32.294Z,100066.78
2023-08-02T00:09:59.182Z,100062.72
2023-08-02T00:12:26.599Z,100070.13
2023-08-02T00:14:54.334Z,100070.94
2023-08-02T00:17:24.159Z,100076.78
2023-08-02T00:19:51.944Z,100080.06
2023-08-02T00:22:23.786Z,100078.06
2023-08-02T00:24:50.602Z,100087.06
2023-08-02T00:27:17.534Z,100087.47
2023-08-02T00:29:44.433Z,100087.06
2023-08-02T00:32:11.379Z,100088.53
2023-08-02T00:34:44.467Z,100084.38
2023-08-02T00:37:11.474Z,100092.84
2023-08-02T00:39:39.256Z,100089.91
2023-08-02T00:42:18.313Z,100097.34
2023-08-02T00:44:46.474Z,100101.00
2023-08-02T00:47:15.824Z,100106.88
2023-08-02T00:49:43.066Z,100105.47
2023-08-02T00:52:14.104Z,100103.19
2023-08-02T00:54:43.298Z,100105.88
2023-08-02T00:57:10.786Z,100103.97
2023-08-02T00:59:40.037Z,100100.78
2023-08-02T01:02:08.424Z,100100.94
2023-08-02T01:04:38.222Z,100103.38
2023-08-02T01:07:24.607Z,100112.25
2023-08-02T01:10:05.412Z,100119.97
2023-08-02T01:12:36.515Z,100118.13
2023-08-02T01:15:04.940Z,100118.34
2023-08-02T01:17:40.407Z,100116.97
2023-08-02T01:20:08.068Z,100118.44
2023-08-02T01:22:35.461Z,100125.22
2023-08-02T01:25:05.801Z,100117.81
2023-08-02T01:27:41.274Z,100118.44
2023-08-02T01:30:13.592Z,100124.44
2023-08-02T01:32:40.984Z,100128.91
2023-08-02T01:35:10.155Z,100132.84
2023-08-02T01:37:37.377Z,100124.28
2023-08-02T01:40:05.327Z,100117.06
2023-08-02T01:42:32.532Z,100116.13
2023-08-02T01:45:01.972Z,100114.19
2023-08-02T01:47:30.904Z,100122.06
2023-08-02T01:49:57.817Z,100116.66
2023-08-02T01:52:24.680Z,100109.34
2023-08-02T01:54:51.676Z,100111.09
2023-08-02T01:57:18.712Z,100108.03
2023-08-02T01:59:50.353Z,100102.13
2023-08-02T02:02:18.058Z,100105.47
2023-08-02T02:04:45.612Z,100116.66
2023-08-02T02:07:12.818Z,100110.03
2023-08-02T02:09:50.639Z,100107.56
2023-08-02T02:12:25.874Z,100117.09
2023-08-02T02:15:00.993Z,100112.72
2023-08-02T02:17:28.183Z,100111.88
2023-08-02T02:19:55.129Z,100114.03
2023-08-02T02:22:32.305Z,100110.59
2023-08-02T02:25:09.994Z,100107.75
2023-08-02T02:27:44.727Z,100113.13
2023-08-02T02:30:12.457Z,100116.88
2023-08-02T02:32:39.507Z,100128.59
2023-08-02T02:35:07.436Z,100129.59
2023-08-02T02:37:34.269Z,100131.28
2023-08-02T02:40:02.218Z,100132.75
2023-08-02T02:42:29.209Z,100137.28
2023-08-02T02:44:56.142Z,100134.84
2023-08-02T02:47:23.739Z,100127.88
2023-08-02T02:49:53.784Z,100133.16
2023-08-02T02:52:20.902Z,100136.63
2023-08-02T02:54:47.953Z,100142.44
2023-08-02T02:57:27.858Z,100143.88
2023-08-02T03:00:03.803Z,100144.78
2023-08-02T03:02:30.876Z,100145.09
2023-08-02T03:05:05.520Z,100147.69
2023-08-02T03:07:35.637Z,100148.31
2023-08-02T03:10:05.586Z,100144.03
2023-08-02T03:12:43.243Z,100153.72
2023-08-02T03:15:13.174Z,100164.63
2023-08-02T03:17:40.412Z,100158.13
2023-08-02T03:20:08.265Z,100164.50
2023-08-02T03:22:35.225Z,100164.41
2023-08-02T03:25:02.140Z,100165.69
2023-08-02T03:27:38.896Z,100164.59
2023-08-02T03:30:14.876Z,100164.81
2023-08-02T03:32:47.290Z,100170.38
2023-08-02T03:35:14.314Z,100178.44
2023-08-02T03:37:49.066Z,100173.91
2023-08-02T03:40:23.737Z,100176.19
2023-08-02T03:42:50.573Z,100183.00
2023-08-02T03:45:17.535Z,100184.84
2023-08-02T03:47:44.669Z,100202.06
2023-08-02T03:50:11.502Z,100200.28
2023-08-02T03:52:49.195Z,100202.53
2023-08-02T03:55:18.491Z,100206.13
2023-08-02T03:57:45.439Z,100202.06
2023-08-02T04:00:12.750Z,100210.09
2023-08-02T04:02:40.526Z,100213.41
2023-08-02T04:05:07.873Z,100216.81
2023-08-02T04:07:34.759Z,100219.31
2023-08-02T04:10:01.759Z,100219.41
2023-08-02T04:12:28.874Z,100219.47
2023-08-02T04:14:56.521Z,100219.78
2023-08-02T04:17:23.584Z,100217.44
2023-08-02T04:19:50.505Z,100216.28
2023-08-02T04:22:22.012Z,100217.00
2023-08-02T04:24:50.292Z,100221.22
2023-08-02T04:27:26.106Z,100226.75
2023-08-02T04:29:53.053Z,100227.16
2023-08-02T04:32:23.928Z,100244.78
2023-08-02T04:34:51.202Z,100246.16
2023-08-02T04:37:18.277Z,100244.50
2023-08-02T04:39:45.262Z,100246.41
2023-08-02T04:42:12.187Z,100240.09
2023-08-02T04:44:39.125Z,100239.81
2023-08-02T04:47:06.081Z,100239.84
2023-08-02T04:49:33.103Z,100242.13
2023-08-02T04:52:00.065Z,100233.72
2023-08-02T04:54:29.562Z,100233.19
2023-08-02T04:56:59.491Z,100235.09
2023-08-02T04:59:26.287Z,100242.31
2023-08-02T05:01:53.206Z,100238.38
2023-08-02T05:04:20.503Z,100240.81
2023-08-02T05:06:47.619Z,100244.16
2023-08-02T05:09:14.484Z,100243.59
2023-08-02T05:11:43.190Z,100248.50
2023-08-02T05:14:10.566Z,100255.22
2023-08-02T05:16:38.406Z,100255.16
2023-08-02T05:19:05.480Z,100250.50
2023-08-02T05:21:33.139Z,100261.09
2023-08-02T05:24:00.022Z,100269.75
2023-08-02T05:26:27.022Z,100264.44
2023-08-02T05:28:57.161Z,100267.13
2023-08-02T05:31:24.099Z,100280.56
2023-08-02T05:33:51.178Z,100283.22
2023-08-02T05:36:18.349Z,100282.25
2023-08-02T05:38:45.421Z,100280.50
2023-08-02T05:41:16.077Z,100274.97
2023-08-02T05:43:46.072Z,100269.38
2023-08-02T05:46:13.125Z,100270.44
2023-08-02T05:48:40.141Z,100260.59
2023-08-02T05:51:07.734Z,100260.59
2023-08-02T05:53:34.832Z,100262.81
2023-08-02T05:56:01.921Z,100257.22
2023-08-02T05:58:30.219Z,100265.84
2023-08-02T06:00:57.407Z,100265.38
2023-08-02T06:03:27.367Z,100266.56
2023-08-02T06:05:54.425Z,100268.72
2023-08-02T06:08:21.399Z,100274.09
2023-08-02T06:10:51.209Z,100285.34
2023-08-02T06:13:18.800Z,100283.72
2023-08-02T06:15:46.529Z,100281.53
2023-08-02T06:18:14.937Z,100277.75
2023-08-02T06:20:41.985Z,100278.72
2023-08-02T06:23:08.864Z,100277.63
2023-08-02T06:25:36.170Z,100281.84
2023-08-02T06:28:08.306Z,100275.63
2023-08-02T06:30:35.357Z,100277.31
2023-08-02T06:33:07.688Z,100282.56
2023-08-02T06:35:35.075Z,100284.97
2023-08-02T06:38:05.381Z,100290.38
2023-08-02T06:40:32.845Z,100288.47
2023-08-02T06:43:03.201Z,100288.00
2023-08-02T06:45:29.947Z,100287.59
2023-08-02T06:47:56.846Z,100290.91
2023-08-02T06:50:25.701Z,100299.84
2023-08-02T06:52:52.843Z,100286.31
2023-08-02T06:55:25.636Z,100288.31
2023-08-02T06:57:53.044Z,100290.41
2023-08-02T07:00:19.992Z,100280.25
2023-08-02T07:02:46.930Z,100273.06
2023-08-02T07:05:13.871Z,100274.19
2023-08-02T07:07:40.914Z,100268.25
2023-08-02T07:10:10.771Z,100272.50
2023-08-02T07:12:38.730Z,100269.81
2023-08-02T07:15:06.373Z,100267.69
2023-08-02T07:17:33.292Z,100264.97
2023-08-02T07:20:00.262Z,100259.03
2023-08-02T07:22:32.569Z,100261.72
2023-08-02T07:24:59.514Z,100262.00
2023-08-02T07:27:26.639Z,100256.63
2023-08-02T07:29:54.383Z,100264.16
2023-08-02T07:32:21.365Z,100260.75
2023-08-02T07:34:49.083Z,100271.09
2023-08-02T07:37:16.519Z,100278.19
2023-08-02T07:39:46.585Z,100275.91
2023-08-02T07:42:13.443Z,100273.47
2023-08-02T07:44:40.837Z,100273.53
2023-08-02T07:47:07.874Z,100280.88
2023-08-02T07:49:35.003Z,100282.59
2023-08-02T07:52:02.073Z,100292.91
2023-08-02T07:54:32.220Z,100292.91
2023-08-02T07:57:03.548Z,100299.13
2023-08-02T07:59:30.534Z,100304.66
2023-08-02T08:01:57.558Z,100306.13
2023-08-02T08:04:24.586Z,100304.41
2023-08-02T08:06:52.686Z,100308.03
2023-08-02T08:09:25.442Z,100311.03
2023-08-02T08:11:56.291Z,100310.81
2023-08-02T08:14:23.476Z,100319.59
2023-08-02T08:16:50.622Z,100317.44
2023-08-02T08:19:17.593Z,100315.44
2023-08-02T08:21:44.886Z,100307.94
2023-08-02T08:24:13.455Z,100298.97
2023-08-02T08:26:41.720Z,100303.19
2023-08-02T08:29:09.038Z,100307.56
2023-08-02T08:31:36.098Z,100318.91
2023-08-02T08:34:03.695Z,100310.94
2023-08-02T08:36:33.486Z,100315.50
2023-08-02T08:39:02.713Z,100300.91
2023-08-02T08:41:29.724Z,100299.06
2023-08-02T08:43:56.955Z,100299.53
2023-08-02T08:46:27.206Z,100303.97
2023-08-02T08:48:54.215Z,100298.56
2023-08-02T08:51:27.638Z,100293.03
2023-08-02T08:53:57.878Z,100289.44
2023-08-02T08:56:29.242Z,100281.03
2023-08-02T08:58:57.621Z,100276.91
2023-08-02T09:01:32.381Z,100273.78
2023-08-02T09:04:07.883Z,100283.72
2023-08-02T09:06:42.840Z,100285.88
2023-08-02T09:09:09.940Z,100284.88
2023-08-02T09:11:38.018Z,100286.97
2023-08-02T09:14:13.053Z,100291.56
2023-08-02T09:17:08.952Z,100281.22
2023-08-02T09:19:40.937Z,100289.41
2023-08-02T09:22:07.810Z,100285.97
2023-08-02T09:24:36.770Z,100286.34
2023-08-02T09:27:26.058Z,100281.94
2023-08-02T09:30:01.725Z,100283.88
2023-08-02T09:32:29.153Z,100295.19
2023-08-02T09:34:59.647Z,100287.25
2023-08-02T09:37:35.038Z,100291.03
2023-08-02T09:40:06.136Z,100288.34
2023-08-02T09:42:36.143Z,100285.72
2023-08-02T09:45:10.263Z,100291.28
2023-08-02T09:47:40.553Z,100289.88
2023-08-02T09:50:12.686Z,100280.22
2023-08-02T09:52:42.801Z,100281.50
2023-08-02T09:55:13.826Z,100281.97
2023-08-02T09:57:44.473Z,100268.66
2023-08-02T10:00:11.842Z,100274.50
2023-08-02T10:02:45.704Z,100267.63
2023-08-02T10:05:19.931Z,100268.38
2023-08-02T10:07:52.268Z,100269.28
2023-08-02T10:10:32.798Z,100271.53
2023-08-02T10:13:31.769Z,100273.63
2023-08-02T10:16:00.080Z,100265.72
2023-08-02T10:18:28.677Z,100271.59
2023-08-02T10:20:57.055Z,100263.47
2023-08-02T10:23:24.012Z,100265.50
2023-08-02T10:25:51.551Z,100255.06
2023-08-02T10:28:19.242Z,100262.50
2023-08-02T10:30:48.553Z,100262.34
2023-08-02T10:33:24.028Z,100265.03
2023-08-02T10:36:04.017Z,100260.47
2023-08-02T10:38:40.303Z,100262.81
2023-08-02T10:41:12.499Z,100262.47
2023-08-02T10:43:55.174Z,100257.75
2023-08-02T10:46:34.028Z,100251.97
2023-08-02T10:49:10.305Z,100253.81
2023-08-02T10:51:41.189Z,100256.28
2023-08-02T10:54:22.645Z,100248.03
2023-08-02T10:57:06.126Z,100249.78
2023-08-02T10:59:32.980Z,100247.91
2023-08-02T11:02:12.582Z,100251.84
2023-08-02T11:04:46.443Z,100246.63
2023-08-02T11:07:21.553Z,100235.44
2023-08-02T11:09:50.508Z,100234.53
2023-08-02T11:12:27.649Z,100238.81
2023-08-02T11:15:02.592Z,100233.53
2023-08-02T11:17:54.636Z,100232.88
2023-08-02T11:20:33.815Z,100229.50
2023-08-02T11:23:00.964Z,100222.91
2023-08-02T11:28:04.796Z,100239.31
2023-08-02T11:30:35.230Z,100225.59
2023-08-02T11:33:02.384Z,100220.56
2023-08-02T11:35:29.433Z,100223.28
2023-08-02T11:37:56.558Z,100214.66
2023-08-02T11:40:27.253Z,100216.72
2023-08-02T11:42:56.323Z,100202.63
2023-08-02T11:45:34.526Z,100200.78
2023-08-02T11:50:36.730Z,100188.13
2023-08-02T11:53:11.915Z,100195.09
2023-08-02T11:55:52.924Z,100189.97
2023-08-02T11:58:30.332Z,100183.53
2023-08-02T12:01:05.644Z,100180.72
2023-08-02T12:03:32.640Z,100174.50
2023-08-02T12:06:01.935Z,100173.75
2023-08-02T12:08:29.118Z,100178.97
2023-08-02T12:10:56.564Z,100165.00
2023-08-02T12:13:27.566Z,100170.22
2023-08-02T12:16:15.024Z,100170.88
2023-08-02T12:19:00.495Z,100165.44
2023-08-02T12:21:27.811Z,100171.09
2023-08-02T12:23:55.152Z,100179.47
2023-08-02T12:26:36.642Z,100168.47
2023-08-02T12:29:04.761Z,100169.84
2023-08-02T12:31:49.853Z,100168.47
2023-08-02T12:34:16.952Z,100164.03
2023-08-02T12:36:45.040Z,100159.75
2023-08-02T12:39:12.289Z,100151.91
2023-08-02T12:41:39.252Z,100151.75
2023-08-02T12:44:06.627Z,100157.28
2023-08-02T12:46:33.709Z,100154.81
2023-08-02T12:49:00.633Z,100150.78
2023-08-02T12:51:30.486Z,100148.94
2023-08-02T12:54:05.678Z,100146.88
2023-08-02T12:56:37.669Z,100142.09
2023-08-02T12:59:06.161Z,100136.50
2023-08-02T13:01:35.490Z,100124.84
2023-08-02T13:04:03.139Z,100119.69
2023-08-02T13:06:30.337Z,100118.28
2023-08-02T13:08:57.245Z,100123.03
2023-08-02T13:11:24.222Z,100109.28
2023-08-02T13:13:51.177Z,100107.00
2023-08-02T13:16:18.156Z,100101.41
2023-08-02T13:18:47.016Z,100100.34
2023-08-02T13:21:27.031Z,100092.00
2023-08-02T13:24:02.970Z,100098.13
2023-08-02T13:26:32.230Z,100099.34
2023-08-02T13:29:00.014Z,100106.78
2023-08-02T13:31:27.115Z,100111.56
2023-08-02T13:33:56.773Z,100096.97
2023-08-02T13:36:23.879Z,100091.09
2023-08-02T13:38:50.831Z,100088.31
2023-08-02T13:41:26.486Z,100085.56
2023-08-02T13:43:53.529Z,100079.06
2023-08-02T13:46:20.413Z,100079.91
2023-08-02T13:48:47.257Z,100084.09
2023-08-02T13:51:14.146Z,100075.13
2023-08-02T13:53:41.117Z,100069.44
2023-08-02T13:56:08.388Z,100070.22
2023-08-02T13:58:35.228Z,100062.53
2023-08-02T14:01:03.236Z,100061.47
2023-08-02T14:03:30.288Z,100060.50
2023-08-02T14:05:57.281Z,100061.81
2023-08-02T14:08:24.423Z,100064.66
2023-08-02T14:10:59.300Z,100070.63
2023-08-02T14:13:36.608Z,100052.03
2023-08-02T14:16:06.968Z,100065.16
2023-08-02T14:18:33.993Z,100062.34
2023-08-02T14:21:00.952Z,100051.59
2023-08-02T14:23:29.602Z,100056.41
2023-08-02T14:25:57.071Z,100056.66
2023-08-02T14:28:24.005Z,100063.53
2023-08-02T14:30:51.012Z,100056.25
2023-08-02T14:33:19.145Z,100054.19
2023-08-02T14:35:46.075Z,100047.09
2023-08-02T14:38:13.066Z,100050.69
2023-08-02T14:40:40.009Z,100048.38
2023-08-02T14:43:07.046Z,100048.44
2023-08-02T14:45:33.972Z,100040.94
2023-08-02T14:48:00.934Z,100043.19
2023-08-02T14:50:29.082Z,100033.38
2023-08-02T14:53:00.500Z,100035.81
2023-08-02T14:55:30.465Z,100019.50
2023-08-02T14:58:00.081Z,100025.19
2023-08-02T15:00:27.013Z,100032.66
2023-08-02T15:02:54.085Z,100019.88
2023-08-02T15:05:24.319Z,100014.91
2023-08-02T15:07:51.328Z,100019.19
2023-08-02T15:10:19.898Z,100017.31
2023-08-02T15:12:46.809Z,100004.09
2023-08-02T15:15:17.678Z,100014.41
2023-08-02T15:17:48.240Z,100011.22
2023-08-02T15:20:15.292Z,100024.88
2023-08-02T15:22:42.556Z,100029.47
2023-08-02T15:25:12.088Z,100025.41
2023-08-02T15:27:38.948Z,100024.63
2023-08-02T15:30:06.440Z,100029.03
2023-08-02T15:32:33.738Z,100034.13
2023-08-02T15:35:00.787Z,100029.50
2023-08-02T15:37:27.777Z,100032.66
2023-08-02T15:39:54.610Z,100032.41
2023-08-02T15:42:25.434Z,100032.66
2023-08-02T15:44:53.150Z,100028.19
2023-08-02T15:47:32.000Z,100024.25
2023-08-02T15:50:08.161Z,100030.31
2023-08-02T15:52:35.242Z,100029.91
2023-08-02T15:55:02.201Z,100023.81
2023-08-02T15:57:38.254Z,100027.38
2023-08-02T16:00:06.003Z,100020.69
2023-08-02T16:02:37.803Z,100026.56
2023-08-02T16:05:05.024Z,100023.91
2023-08-02T16:07:31.933Z,100017.97
2023-08-02T16:09:58.811Z,100017.31
2023-08-02T16:12:29.083Z,100013.06
2023-08-02T16:14:56.076Z,100010.47
2023-08-02T16:17:23.104Z,100009.91
2023-08-02T16:19:50.149Z,100004.44
2023-08-02T16:22:17.070Z,100017.72
2023-08-02T16:24:43.996Z,100015.22
2023-08-02T16:27:10.851Z,100016.19
2023-08-02T16:29:38.656Z,100017.47
2023-08-02T16:32:06.155Z,100016.72
2023-08-02T16:34:33.411Z,100010.34
2023-08-02T16:37:00.377Z,100012.41
2023-08-02T16:39:27.241Z,100014.38
2023-08-02T16:41:54.314Z,100007.78
2023-08-02T16:44:21.651Z,99999.03
2023-08-02T16:46:48.696Z,100009.28
2023-08-02T16:49:17.471Z,100011.09
2023-08-02T16:51:51.101Z,100005.34
2023-08-02T16:54:26.645Z,100005.28
2023-08-02T16:56:53.703Z,100013.69
2023-08-02T16:59:26.791Z,100003.34
2023-08-02T17:02:09.790Z,100004.47
2023-08-02T17:04:37.858Z,100000.94
2023-08-02T17:07:05.388Z,99997.84
2023-08-02T17:09:34.294Z,99995.31
2023-08-02T17:12:02.503Z,100003.06
2023-08-02T17:14:35.341Z,99989.59
2023-08-02T17:17:06.350Z,99993.44
2023-08-02T17:19:34.021Z,99994.47
2023-08-02T17:22:01.015Z,99996.91
2023-08-02T17:24:30.422Z,99987.75
2023-08-02T17:26:57.587Z,99991.47
2023-08-02T17:29:24.736Z,99994.34
2023-08-02T17:31:58.818Z,99998.06
2023-08-02T17:34:33.519Z,99989.16
2023-08-02T17:37:00.590Z,99990.19
2023-08-02T17:39:27.602Z,99998.88
2023-08-02T17:41:55.066Z,99987.88
2023-08-02T17:44:22.128Z,99991.41
2023-08-02T17:46:51.670Z,99992.97
2023-08-02T17:49:18.832Z,99993.81
2023-08-02T17:51:47.314Z,99991.59
2023-08-02T17:54:15.544Z,99987.53
2023-08-02T17:56:42.421Z,99990.84
2023-08-02T17:59:09.573Z,99989.50
2023-08-02T18:01:36.573Z,99988.22
2023-08-02T18:04:04.986Z,99983.16
2023-08-02T18:06:32.932Z,99991.78
2023-08-02T18:09:00.110Z,99987.69
2023-08-02T18:11:29.809Z,99991.88
2023-08-02T18:13:57.354Z,99987.75
2023-08-02T18:16:27.526Z,99977.47
2023-08-02T18:18:56.670Z,99981.25
2023-08-02T18:21:23.681Z,99987.28
2023-08-02T18:23:50.609Z,99983.25
2023-08-02T18:26:17.860Z,99998.22
2023-08-02T18:28:45.011Z,99997.59
2023-08-02T18:31:12.389Z,99988.09
2023-08-02T18:33:39.350Z,99993.75
2023-08-02T18:36:16.719Z,100002.09
2023-08-02T18:38:49.611Z,99995.97
2023-08-02T18:41:18.750Z,100005.75
2023-08-02T18:43:52.668Z,99991.59
2023-08-02T18:46:22.746Z,99996.16
2023-08-02T18:48:49.993Z,100008.53
2023-08-02T18:51:18.481Z,100004.78
2023-08-02T18:53:50.080Z,100002.09
2023-08-02T18:56:18.258Z,100000.78
2023-08-02T18:58:46.607Z,100007.38
2023-08-02T19:01:13.562Z,100011.31
2023-08-02T19:03:41.150Z,100010.28
2023-08-02T19:06:09.360Z,100016.16
2023-08-02T19:08:44.871Z,100014.66
2023-08-02T19:11:26.365Z,100013.31
2023-08-02T19:13:54.341Z,100018.22
2023-08-02T19:16:23.407Z,100026.88
2023-08-02T19:18:50.913Z,100029.22
2023-08-02T19:21:18.538Z,100035.66
2023-08-02T19:23:51.250Z,100037.38
2023-08-02T19:26:19.952Z,100040.41
2023-08-02T19:28:48.301Z,100043.97
2023-08-02T19:31:15.403Z,100048.22
2023-08-02T19:33:46.410Z,100053.63
2023-08-02T19:36:23.575Z,100059.56
2023-08-02T19:38:51.026Z,100052.13
2023-08-02T19:41:27.165Z,100061.09
2023-08-02T19:44:02.598Z,100070.88
2023-08-02T19:46:29.995Z,100064.63
2023-08-02T19:48:57.616Z,100065.13
2023-08-02T19:51:24.690Z,100070.53
2023-08-02T19:53:51.801Z,100070.53
2023-08-02T19:56:25.793Z,100074.91
2023-08-02T19:58:58.298Z,100077.78
2023-08-02T20:01:29.945Z,100077.13
2023-08-02T20:03:57.188Z,100075.59
2023-08-02T20:06:27.312Z,100074.75
2023-08-02T20:08:54.591Z,100070.88
2023-08-02T20:11:23.103Z,100080.16
2023-08-02T20:14:13.203Z,100080.16
2023-08-02T20:16:43.150Z,100077.47
2023-08-02T20:19:23.711Z,100066.13
2023-08-02T20:21:53.094Z,100066.63
2023-08-02T20:24:21.100Z,100075.59
2023-08-02T20:26:51.733Z,100079.59
2023-08-02T20:29:26.282Z,100076.25
2023-08-02T20:31:53.877Z,100070.50
2023-08-02T20:34:22.067Z,100074.88
2023-08-02T20:36:55.998Z,100061.19
2023-08-02T20:39:27.620Z,100059.00
2023-08-02T20:41:58.080Z,100066.78
2023-08-02T20:44:28.268Z,100060.34
2023-08-02T20:46:55.591Z,100062.38
2023-08-02T20:49:22.852Z,100058.66
2023-08-02T20:51:54.530Z,100064.06
2023-08-02T20:54:21.634Z,100056.13
2023-08-02T20:56:48.950Z,100063.38
2023-08-02T20:59:23.220Z,100067.94
2023-08-02T21:01:51.908Z,100062.53
2023-08-02T21:04:26.935Z,100059.47
2023-08-02T21:07:09.579Z,100070.59
2023-08-02T21:09:39.900Z,100060.97
2023-08-02T21:12:07.664Z,100068.06
2023-08-02T21:14:34.955Z,100066.94
2023-08-02T21:17:02.346Z,100065.06
2023-08-02T21:19:35.770Z,100055.34
2023-08-02T21:22:12.120Z,100058.63
2023-08-02T21:24:49.765Z,100055.53
2023-08-02T21:27:25.399Z,100060.59
2023-08-02T21:30:01.861Z,100053.34
2023-08-02T21:32:43.979Z,100058.06
2023-08-02T21:35:19.730Z,100053.81
2023-08-02T21:37:56.903Z,100055.88
2023-08-02T21:40:31.368Z,100062.81
2023-08-02T21:43:13.634Z,100062.97
2023-08-02T21:45:46.118Z,100060.13
2023-08-02T21:48:16.706Z,100066.38
2023-08-02T21:50:45.540Z,100069.19
2023-08-02T21:53:20.378Z,100075.91
2023-08-02T21:55:48.104Z,100078.66
2023-08-02T21:58:20.354Z,100074.41
2023-08-02T22:00:48.878Z,100075.16
2023-08-02T22:03:18.889Z,100087.63
2023-08-02T22:05:46.229Z,100077.13
2023-08-02T22:08:15.485Z,100084.56
2023-08-02T22:10:45.331Z,100089.97
2023-08-02T22:13:19.529Z,100095.53
2023-08-02T22:15:46.837Z,100088.59
2023-08-02T22:18:17.626Z,100088.59
2023-08-02T22:20:44.782Z,100087.91
2023-08-02T22:23:11.938Z,100096.03
2023-08-02T22:25:40.570Z,100092.88
2023-08-02T22:28:07.674Z,100087.94
2023-08-02T22:30:34.868Z,100096.38
2023-08-02T22:33:12.503Z,100089.63
2023-08-02T22:35:39.957Z,100093.66
2023-08-02T22:38:09.427Z,100092.66
2023-08-02T22:40:40.729Z,100092.31
2023-08-02T22:43:07.713Z,100087.91
2023-08-02T22:45:34.923Z,100101.75
2023-08-02T22:48:42.194Z,100093.81
2023-08-02T22:50:56.418Z,100094.47
2023-08-02T22:53:24.003Z,100089.56
2023-08-02T22:55:51.485Z,100092.75
2023-08-02T22:58:18.525Z,100096.66
2023-08-02T23:00:46.945Z,100099.53
2023-08-02T23:03:36.192Z,100108.41
2023-08-02T23:06:08.924Z,100107.41
2023-08-02T23:08:37.075Z,100101.84
2023-08-02T23:11:12.760Z,100112.13
2023-08-02T23:13:44.650Z,100111.78
2023-08-02T23:16:20.797Z,100108.63
2023-08-02T23:19:06.194Z,100126.66
2023-08-02T23:21:43.206Z,100124.59
2023-08-02T23:24:12.731Z,100129.34
2023-08-02T23:26:39.986Z,100129.41
2023-08-02T23:29:07.048Z,100129.66
2023-08-02T23:31:34.386Z,100129.53
2023-08-02T23:34:02.430Z,100127.50
2023-08-02T23:36:37.303Z,100127.28
2023-08-02T23:39:11.872Z,100125.50
2023-08-02T23:41:39.012Z,100116.81
2023-08-02T23:44:06.018Z,100113.19
2023-08-02T23:46:35.260Z,100120.41
2023-08-02T23:49:03.944Z,100121.56
2023-08-02T23:51:30.920Z,100123.72
2023-08-02T23:54:05.822Z,100111.75
2023-08-02T23:56:32.869Z,100113.78
2023-08-02T23:59:00.489Z,100105.03
